sensor_id;sensor_type;location;lat;lon;timestamp;P1;durP1;ratioP1;P2;durP2;ratioP2
80823;SDS011;70228;59.128;37.936;2023-05-24T00:01:46;13.87;;;7.07;;
80823;SDS011;70228;59.128;37.936;2023-05-24T00:04:12;13.05;;;6.90;;
80823;SDS011;70228;59.128;37.936;2023-05-24T00:06:40;16.95;;;6.72;;
80823;SDS011;70228;59.128;37.936;2023-05-24T00:09:07;17.85;;;7.35;;
80823;SDS011;70228;59.128;37.936;2023-05-24T00:11:33;16.67;;;7.47;;
80823;SDS011;70228;59.128;37.936;2023-05-24T00:13:59;14.57;;;6.83;;
80823;SDS011;70228;59.128;37.936;2023-05-24T00:16:25;16.63;;;7.43;;
80823;SDS011;70228;59.128;37.936;2023-05-24T00:18:52;14.57;;;7.10;;
80823;SDS011;70228;59.128;37.936;2023-05-24T00:21:19;13.25;;;6.82;;
80823;SDS011;70228;59.128;37.936;2023-05-24T00:23:45;15.65;;;7.28;;
80823;SDS011;70228;59.128;37.936;2023-05-24T00:26:12;13.83;;;6.93;;
80823;SDS011;70228;59.128;37.936;2023-05-24T00:28:38;11.63;;;6.60;;
80823;SDS011;70228;59.128;37.936;2023-05-24T00:31:04;14.07;;;7.50;;
80823;SDS011;70228;59.128;37.936;2023-05-24T00:33:31;15.70;;;7.30;;
80823;SDS011;70228;59.128;37.936;2023-05-24T00:35:57;14.50;;;6.82;;
80823;SDS011;70228;59.128;37.936;2023-05-24T00:38:27;14.27;;;6.93;;
80823;SDS011;70228;59.128;37.936;2023-05-24T00:40:53;14.57;;;6.80;;
80823;SDS011;70228;59.128;37.936;2023-05-24T00:43:24;13.85;;;6.93;;
80823;SDS011;70228;59.128;37.936;2023-05-24T00:46:13;15.55;;;7.40;;
80823;SDS011;70228;59.128;37.936;2023-05-24T00:48:42;15.07;;;6.65;;
80823;SDS011;70228;59.128;37.936;2023-05-24T00:51:10;14.63;;;7.00;;
80823;SDS011;70228;59.128;37.936;2023-05-24T00:53:39;13.95;;;6.45;;
80823;SDS011;70228;59.128;37.936;2023-05-24T00:56:07;15.60;;;6.65;;
80823;SDS011;70228;59.128;37.936;2023-05-24T00:58:33;13.48;;;6.65;;
80823;SDS011;70228;59.128;37.936;2023-05-24T01:01:00;13.63;;;5.97;;
80823;SDS011;70228;59.128;37.936;2023-05-24T01:03:28;15.80;;;6.33;;
80823;SDS011;70228;59.128;37.936;2023-05-24T01:05:58;14.77;;;6.38;;
80823;SDS011;70228;59.128;37.936;2023-05-24T01:08:38;14.63;;;6.30;;
80823;SDS011;70228;59.128;37.936;2023-05-24T01:16:52;12.93;;;6.47;;
80823;SDS011;70228;59.128;37.936;2023-05-24T01:25:52;12.30;;;6.63;;
80823;SDS011;70228;59.128;37.936;2023-05-24T01:28:37;14.35;;;6.95;;
80823;SDS011;70228;59.128;37.936;2023-05-24T01:31:04;14.40;;;6.93;;
80823;SDS011;70228;59.128;37.936;2023-05-24T01:33:31;14.82;;;7.65;;
80823;SDS011;70228;59.128;37.936;2023-05-24T01:35:58;18.88;;;6.90;;
80823;SDS011;70228;59.128;37.936;2023-05-24T01:38:24;15.65;;;7.43;;
80823;SDS011;70228;59.128;37.936;2023-05-24T01:40:51;13.60;;;7.25;;
80823;SDS011;70228;59.128;37.936;2023-05-24T01:43:30;16.73;;;7.20;;
80823;SDS011;70228;59.128;37.936;2023-05-24T01:46:10;14.50;;;7.80;;
80823;SDS011;70228;59.128;37.936;2023-05-24T01:52:01;18.52;;;7.57;;
80823;SDS011;70228;59.128;37.936;2023-05-24T01:54:30;13.65;;;7.65;;
80823;SDS011;70228;59.128;37.936;2023-05-24T01:57:01;14.97;;;8.23;;
80823;SDS011;70228;59.128;37.936;2023-05-24T01:59:31;13.82;;;7.82;;
80823;SDS011;70228;59.128;37.936;2023-05-24T02:01:58;14.90;;;7.85;;
80823;SDS011;70228;59.128;37.936;2023-05-24T02:04:25;19.23;;;8.52;;
80823;SDS011;70228;59.128;37.936;2023-05-24T02:06:51;14.82;;;7.80;;
80823;SDS011;70228;59.128;37.936;2023-05-24T02:09:17;14.27;;;7.77;;
80823;SDS011;70228;59.128;37.936;2023-05-24T02:11:43;15.15;;;7.25;;
80823;SDS011;70228;59.128;37.936;2023-05-24T02:14:10;14.32;;;7.05;;
80823;SDS011;70228;59.128;37.936;2023-05-24T02:16:36;13.05;;;7.32;;
80823;SDS011;70228;59.128;37.936;2023-05-24T02:19:07;12.43;;;7.47;;
80823;SDS011;70228;59.128;37.936;2023-05-24T02:21:34;13.20;;;7.73;;
80823;SDS011;70228;59.128;37.936;2023-05-24T02:24:01;11.85;;;7.13;;
80823;SDS011;70228;59.128;37.936;2023-05-24T02:26:27;17.42;;;9.38;;
80823;SDS011;70228;59.128;37.936;2023-05-24T02:28:53;16.10;;;8.32;;
80823;SDS011;70228;59.128;37.936;2023-05-24T02:31:19;14.48;;;8.00;;
80823;SDS011;70228;59.128;37.936;2023-05-24T02:33:46;12.43;;;7.40;;
80823;SDS011;70228;59.128;37.936;2023-05-24T02:36:13;16.40;;;8.25;;
80823;SDS011;70228;59.128;37.936;2023-05-24T02:38:39;15.88;;;8.48;;
80823;SDS011;70228;59.128;37.936;2023-05-24T02:41:05;14.45;;;8.73;;
80823;SDS011;70228;59.128;37.936;2023-05-24T02:43:33;14.48;;;8.45;;
80823;SDS011;70228;59.128;37.936;2023-05-24T02:46:00;15.03;;;8.13;;
80823;SDS011;70228;59.128;37.936;2023-05-24T02:48:26;13.20;;;8.25;;
80823;SDS011;70228;59.128;37.936;2023-05-24T02:50:52;16.50;;;8.40;;
80823;SDS011;70228;59.128;37.936;2023-05-24T02:53:19;15.15;;;8.00;;
80823;SDS011;70228;59.128;37.936;2023-05-24T02:55:46;14.25;;;7.72;;
80823;SDS011;70228;59.128;37.936;2023-05-24T02:58:12;15.10;;;7.77;;
80823;SDS011;70228;59.128;37.936;2023-05-24T03:00:38;13.52;;;8.15;;
80823;SDS011;70228;59.128;37.936;2023-05-24T03:03:05;13.93;;;7.25;;
80823;SDS011;70228;59.128;37.936;2023-05-24T03:05:31;13.40;;;7.63;;
80823;SDS011;70228;59.128;37.936;2023-05-24T03:07:57;16.27;;;7.70;;
80823;SDS011;70228;59.128;37.936;2023-05-24T03:10:23;15.83;;;7.67;;
80823;SDS011;70228;59.128;37.936;2023-05-24T03:12:49;16.08;;;8.65;;
80823;SDS011;70228;59.128;37.936;2023-05-24T03:15:16;14.60;;;7.95;;
80823;SDS011;70228;59.128;37.936;2023-05-24T03:17:42;18.25;;;8.55;;
80823;SDS011;70228;59.128;37.936;2023-05-24T03:20:08;15.20;;;8.35;;
80823;SDS011;70228;59.128;37.936;2023-05-24T03:22:36;14.77;;;7.57;;
80823;SDS011;70228;59.128;37.936;2023-05-24T03:25:02;19.88;;;9.27;;
80823;SDS011;70228;59.128;37.936;2023-05-24T03:27:29;17.67;;;8.80;;
80823;SDS011;70228;59.128;37.936;2023-05-24T03:29:55;17.42;;;8.07;;
80823;SDS011;70228;59.128;37.936;2023-05-24T03:32:22;18.60;;;8.52;;
80823;SDS011;70228;59.128;37.936;2023-05-24T03:34:48;16.50;;;8.83;;
80823;SDS011;70228;59.128;37.936;2023-05-24T03:37:14;15.25;;;9.07;;
80823;SDS011;70228;59.128;37.936;2023-05-24T03:39:40;17.75;;;8.82;;
80823;SDS011;70228;59.128;37.936;2023-05-24T03:42:07;18.08;;;9.20;;
80823;SDS011;70228;59.128;37.936;2023-05-24T03:44:33;16.65;;;8.88;;
80823;SDS011;70228;59.128;37.936;2023-05-24T03:46:59;16.40;;;8.70;;
80823;SDS011;70228;59.128;37.936;2023-05-24T03:49:26;18.10;;;8.60;;
80823;SDS011;70228;59.128;37.936;2023-05-24T03:51:52;17.40;;;8.55;;
80823;SDS011;70228;59.128;37.936;2023-05-24T03:54:18;19.90;;;9.13;;
80823;SDS011;70228;59.128;37.936;2023-05-24T03:56:44;16.38;;;8.32;;
80823;SDS011;70228;59.128;37.936;2023-05-24T03:59:11;14.13;;;8.73;;
80823;SDS011;70228;59.128;37.936;2023-05-24T04:01:37;18.17;;;8.93;;
80823;SDS011;70228;59.128;37.936;2023-05-24T04:04:04;19.55;;;9.43;;
80823;SDS011;70228;59.128;37.936;2023-05-24T04:06:30;20.85;;;10.05;;
80823;SDS011;70228;59.128;37.936;2023-05-24T04:08:57;22.35;;;9.73;;
80823;SDS011;70228;59.128;37.936;2023-05-24T04:11:24;19.03;;;9.73;;
80823;SDS011;70228;59.128;37.936;2023-05-24T04:13:54;20.23;;;10.75;;
80823;SDS011;70228;59.128;37.936;2023-05-24T04:16:21;17.15;;;9.73;;
80823;SDS011;70228;59.128;37.936;2023-05-24T04:18:55;19.40;;;9.75;;
80823;SDS011;70228;59.128;37.936;2023-05-24T04:21:21;16.83;;;9.98;;
80823;SDS011;70228;59.128;37.936;2023-05-24T04:23:48;17.67;;;9.43;;
80823;SDS011;70228;59.128;37.936;2023-05-24T04:26:14;20.48;;;9.70;;
80823;SDS011;70228;59.128;37.936;2023-05-24T04:28:42;23.02;;;10.32;;
80823;SDS011;70228;59.128;37.936;2023-05-24T04:31:08;20.85;;;9.30;;
80823;SDS011;70228;59.128;37.936;2023-05-24T04:33:36;16.55;;;9.77;;
80823;SDS011;70228;59.128;37.936;2023-05-24T04:36:04;16.87;;;8.40;;
80823;SDS011;70228;59.128;37.936;2023-05-24T04:38:30;17.48;;;8.48;;
80823;SDS011;70228;59.128;37.936;2023-05-24T04:41:03;12.90;;;6.75;;
80823;SDS011;70228;59.128;37.936;2023-05-24T04:43:30;14.32;;;7.05;;
80823;SDS011;70228;59.128;37.936;2023-05-24T04:45:57;11.93;;;6.43;;
80823;SDS011;70228;59.128;37.936;2023-05-24T04:48:24;14.83;;;7.87;;
80823;SDS011;70228;59.128;37.936;2023-05-24T04:50:50;13.30;;;7.60;;
80823;SDS011;70228;59.128;37.936;2023-05-24T04:53:17;13.68;;;7.53;;
80823;SDS011;70228;59.128;37.936;2023-05-24T04:55:45;14.73;;;7.55;;
80823;SDS011;70228;59.128;37.936;2023-05-24T04:58:12;15.68;;;7.65;;
80823;SDS011;70228;59.128;37.936;2023-05-24T05:00:38;13.50;;;7.50;;
80823;SDS011;70228;59.128;37.936;2023-05-24T05:03:05;14.30;;;8.38;;
80823;SDS011;70228;59.128;37.936;2023-05-24T05:05:32;14.25;;;8.38;;
80823;SDS011;70228;59.128;37.936;2023-05-24T05:07:58;15.13;;;8.38;;
80823;SDS011;70228;59.128;37.936;2023-05-24T05:10:24;16.75;;;8.48;;
80823;SDS011;70228;59.128;37.936;2023-05-24T05:12:51;12.13;;;7.60;;
80823;SDS011;70228;59.128;37.936;2023-05-24T05:15:21;16.75;;;9.13;;
80823;SDS011;70228;59.128;37.936;2023-05-24T05:17:48;13.57;;;8.38;;
80823;SDS011;70228;59.128;37.936;2023-05-24T05:20:15;16.20;;;8.32;;
80823;SDS011;70228;59.128;37.936;2023-05-24T05:22:47;17.35;;;8.63;;
80823;SDS011;70228;59.128;37.936;2023-05-24T05:25:14;12.27;;;7.80;;
80823;SDS011;70228;59.128;37.936;2023-05-24T05:27:40;17.05;;;8.13;;
80823;SDS011;70228;59.128;37.936;2023-05-24T05:30:07;16.13;;;7.45;;
80823;SDS011;70228;59.128;37.936;2023-05-24T05:32:33;11.60;;;6.38;;
80823;SDS011;70228;59.128;37.936;2023-05-24T05:35:00;15.18;;;6.28;;
80823;SDS011;70228;59.128;37.936;2023-05-24T05:37:27;14.87;;;6.10;;
80823;SDS011;70228;59.128;37.936;2023-05-24T05:39:54;14.93;;;5.95;;
80823;SDS011;70228;59.128;37.936;2023-05-24T05:42:21;14.75;;;7.72;;
80823;SDS011;70228;59.128;37.936;2023-05-24T05:44:47;11.13;;;6.00;;
80823;SDS011;70228;59.128;37.936;2023-05-24T05:47:13;12.07;;;5.95;;
80823;SDS011;70228;59.128;37.936;2023-05-24T05:49:40;15.07;;;5.77;;
80823;SDS011;70228;59.128;37.936;2023-05-24T05:52:06;12.18;;;6.30;;
80823;SDS011;70228;59.128;37.936;2023-05-24T05:54:32;11.27;;;6.05;;
80823;SDS011;70228;59.128;37.936;2023-05-24T05:56:59;16.40;;;5.63;;
80823;SDS011;70228;59.128;37.936;2023-05-24T05:59:25;11.82;;;5.80;;
80823;SDS011;70228;59.128;37.936;2023-05-24T06:01:51;14.43;;;5.60;;
80823;SDS011;70228;59.128;37.936;2023-05-24T06:04:17;12.65;;;5.75;;
80823;SDS011;70228;59.128;37.936;2023-05-24T06:06:44;14.35;;;6.32;;
80823;SDS011;70228;59.128;37.936;2023-05-24T06:09:16;10.18;;;5.82;;
80823;SDS011;70228;59.128;37.936;2023-05-24T06:11:43;12.68;;;5.75;;
80823;SDS011;70228;59.128;37.936;2023-05-24T06:14:10;16.40;;;5.23;;
80823;SDS011;70228;59.128;37.936;2023-05-24T06:16:37;11.98;;;5.70;;
80823;SDS011;70228;59.128;37.936;2023-05-24T06:19:06;10.57;;;5.03;;
80823;SDS011;70228;59.128;37.936;2023-05-24T06:21:33;11.68;;;5.10;;
80823;SDS011;70228;59.128;37.936;2023-05-24T06:24:02;11.10;;;5.10;;
80823;SDS011;70228;59.128;37.936;2023-05-24T06:26:28;10.00;;;4.77;;
80823;SDS011;70228;59.128;37.936;2023-05-24T06:28:55;12.00;;;5.05;;
80823;SDS011;70228;59.128;37.936;2023-05-24T06:31:21;9.55;;;4.55;;
80823;SDS011;70228;59.128;37.936;2023-05-24T06:33:47;12.63;;;5.45;;
80823;SDS011;70228;59.128;37.936;2023-05-24T06:36:14;11.05;;;4.90;;
80823;SDS011;70228;59.128;37.936;2023-05-24T06:38:40;11.30;;;4.77;;
80823;SDS011;70228;59.128;37.936;2023-05-24T06:41:06;11.38;;;4.82;;
80823;SDS011;70228;59.128;37.936;2023-05-24T06:43:33;14.90;;;4.60;;
80823;SDS011;70228;59.128;37.936;2023-05-24T06:45:59;14.20;;;5.35;;
80823;SDS011;70228;59.128;37.936;2023-05-24T06:48:26;9.98;;;4.80;;
80823;SDS011;70228;59.128;37.936;2023-05-24T06:50:52;9.40;;;4.27;;
80823;SDS011;70228;59.128;37.936;2023-05-24T06:53:19;10.05;;;5.10;;
80823;SDS011;70228;59.128;37.936;2023-05-24T06:55:46;13.70;;;5.00;;
80823;SDS011;70228;59.128;37.936;2023-05-24T06:58:12;13.45;;;5.47;;
80823;SDS011;70228;59.128;37.936;2023-05-24T07:00:39;12.18;;;5.15;;
80823;SDS011;70228;59.128;37.936;2023-05-24T07:03:07;13.63;;;4.87;;
80823;SDS011;70228;59.128;37.936;2023-05-24T07:05:34;10.32;;;4.80;;
80823;SDS011;70228;59.128;37.936;2023-05-24T07:08:01;13.35;;;4.93;;
80823;SDS011;70228;59.128;37.936;2023-05-24T07:10:27;11.25;;;4.72;;
80823;SDS011;70228;59.128;37.936;2023-05-24T07:12:53;10.95;;;4.75;;
80823;SDS011;70228;59.128;37.936;2023-05-24T07:15:20;9.80;;;4.50;;
80823;SDS011;70228;59.128;37.936;2023-05-24T07:17:46;9.93;;;4.60;;
80823;SDS011;70228;59.128;37.936;2023-05-24T07:20:12;12.75;;;5.03;;
80823;SDS011;70228;59.128;37.936;2023-05-24T07:22:42;10.75;;;4.47;;
80823;SDS011;70228;59.128;37.936;2023-05-24T07:25:08;15.90;;;4.05;;
80823;SDS011;70228;59.128;37.936;2023-05-24T07:27:35;9.43;;;3.67;;
80823;SDS011;70228;59.128;37.936;2023-05-24T07:30:02;10.90;;;3.75;;
80823;SDS011;70228;59.128;37.936;2023-05-24T07:32:29;8.25;;;3.70;;
80823;SDS011;70228;59.128;37.936;2023-05-24T07:34:57;13.40;;;4.00;;
80823;SDS011;70228;59.128;37.936;2023-05-24T07:37:23;13.35;;;4.57;;
80823;SDS011;70228;59.128;37.936;2023-05-24T07:39:50;8.60;;;4.47;;
80823;SDS011;70228;59.128;37.936;2023-05-24T07:42:16;10.27;;;4.22;;
80823;SDS011;70228;59.128;37.936;2023-05-24T07:44:43;11.70;;;3.88;;
80823;SDS011;70228;59.128;37.936;2023-05-24T07:47:09;13.35;;;3.78;;
80823;SDS011;70228;59.128;37.936;2023-05-24T07:49:35;11.43;;;4.00;;
80823;SDS011;70228;59.128;37.936;2023-05-24T07:52:01;9.93;;;3.50;;
80823;SDS011;70228;59.128;37.936;2023-05-24T07:54:31;8.98;;;3.63;;
80823;SDS011;70228;59.128;37.936;2023-05-24T07:56:58;11.25;;;3.38;;
80823;SDS011;70228;59.128;37.936;2023-05-24T07:59:24;14.40;;;3.80;;
80823;SDS011;70228;59.128;37.936;2023-05-24T08:01:56;16.30;;;3.97;;
80823;SDS011;70228;59.128;37.936;2023-05-24T08:04:31;14.73;;;4.30;;
80823;SDS011;70228;59.128;37.936;2023-05-24T08:06:58;11.13;;;3.97;;
80823;SDS011;70228;59.128;37.936;2023-05-24T08:09:26;13.90;;;3.80;;
80823;SDS011;70228;59.128;37.936;2023-05-24T08:11:54;11.70;;;3.50;;
80823;SDS011;70228;59.128;37.936;2023-05-24T08:14:24;9.65;;;3.60;;
80823;SDS011;70228;59.128;37.936;2023-05-24T08:16:50;10.10;;;3.30;;
80823;SDS011;70228;59.128;37.936;2023-05-24T08:19:16;30.45;;;3.88;;
80823;SDS011;70228;59.128;37.936;2023-05-24T08:21:42;9.90;;;3.63;;
80823;SDS011;70228;59.128;37.936;2023-05-24T08:24:08;12.98;;;3.35;;
80823;SDS011;70228;59.128;37.936;2023-05-24T08:26:35;10.38;;;3.30;;
80823;SDS011;70228;59.128;37.936;2023-05-24T08:29:01;10.40;;;3.70;;
80823;SDS011;70228;59.128;37.936;2023-05-24T08:31:28;9.90;;;3.58;;
80823;SDS011;70228;59.128;37.936;2023-05-24T08:33:54;17.88;;;3.67;;
80823;SDS011;70228;59.128;37.936;2023-05-24T08:36:22;15.77;;;4.28;;
80823;SDS011;70228;59.128;37.936;2023-05-24T08:38:48;13.93;;;3.97;;
80823;SDS011;70228;59.128;37.936;2023-05-24T08:41:14;9.40;;;3.40;;
80823;SDS011;70228;59.128;37.936;2023-05-24T08:43:41;10.77;;;3.70;;
80823;SDS011;70228;59.128;37.936;2023-05-24T08:46:09;10.10;;;3.75;;
80823;SDS011;70228;59.128;37.936;2023-05-24T08:48:37;13.30;;;3.63;;
80823;SDS011;70228;59.128;37.936;2023-05-24T08:51:11;9.52;;;4.03;;
80823;SDS011;70228;59.128;37.936;2023-05-24T08:53:41;13.40;;;3.70;;
80823;SDS011;70228;59.128;37.936;2023-05-24T08:56:14;10.55;;;3.72;;
80823;SDS011;70228;59.128;37.936;2023-05-24T08:58:42;12.07;;;3.83;;
80823;SDS011;70228;59.128;37.936;2023-05-24T09:01:12;10.13;;;3.33;;
80823;SDS011;70228;59.128;37.936;2023-05-24T09:03:39;8.00;;;2.95;;
80823;SDS011;70228;59.128;37.936;2023-05-24T09:06:07;10.40;;;3.20;;
80823;SDS011;70228;59.128;37.936;2023-05-24T09:08:36;10.43;;;2.90;;
80823;SDS011;70228;59.128;37.936;2023-05-24T09:11:03;10.25;;;3.72;;
80823;SDS011;70228;59.128;37.936;2023-05-24T09:13:31;7.82;;;2.83;;
80823;SDS011;70228;59.128;37.936;2023-05-24T09:15:59;11.43;;;3.33;;
80823;SDS011;70228;59.128;37.936;2023-05-24T09:18:25;8.30;;;3.13;;
80823;SDS011;70228;59.128;37.936;2023-05-24T09:20:51;11.38;;;3.30;;
80823;SDS011;70228;59.128;37.936;2023-05-24T09:23:18;13.00;;;3.60;;
80823;SDS011;70228;59.128;37.936;2023-05-24T09:25:44;8.70;;;3.13;;
80823;SDS011;70228;59.128;37.936;2023-05-24T09:28:14;9.70;;;3.13;;
80823;SDS011;70228;59.128;37.936;2023-05-24T09:30:42;9.17;;;3.33;;
80823;SDS011;70228;59.128;37.936;2023-05-24T09:33:10;7.50;;;3.08;;
80823;SDS011;70228;59.128;37.936;2023-05-24T09:35:41;7.32;;;3.05;;
80823;SDS011;70228;59.128;37.936;2023-05-24T09:38:15;7.80;;;3.40;;
80823;SDS011;70228;59.128;37.936;2023-05-24T09:40:44;13.20;;;3.70;;
80823;SDS011;70228;59.128;37.936;2023-05-24T09:43:11;9.00;;;3.63;;
80823;SDS011;70228;59.128;37.936;2023-05-24T09:45:38;13.65;;;3.78;;
80823;SDS011;70228;59.128;37.936;2023-05-24T09:48:14;9.30;;;3.50;;
80823;SDS011;70228;59.128;37.936;2023-05-24T09:51:06;9.05;;;3.65;;
80823;SDS011;70228;59.128;37.936;2023-05-24T09:53:32;9.18;;;3.90;;
80823;SDS011;70228;59.128;37.936;2023-05-24T09:55:59;9.67;;;3.93;;
80823;SDS011;70228;59.128;37.936;2023-05-24T09:58:31;9.52;;;3.75;;
80823;SDS011;70228;59.128;37.936;2023-05-24T10:03:31;10.27;;;3.45;;
80823;SDS011;70228;59.128;37.936;2023-05-24T10:05:58;23.50;;;5.32;;
80823;SDS011;70228;59.128;37.936;2023-05-24T10:08:26;7.30;;;3.47;;
80823;SDS011;70228;59.128;37.936;2023-05-24T10:10:52;9.82;;;3.80;;
80823;SDS011;70228;59.128;37.936;2023-05-24T10:13:21;8.65;;;3.67;;
80823;SDS011;70228;59.128;37.936;2023-05-24T10:15:47;8.50;;;3.63;;
80823;SDS011;70228;59.128;37.936;2023-05-24T10:18:13;6.93;;;3.40;;
80823;SDS011;70228;59.128;37.936;2023-05-24T10:20:39;9.03;;;3.40;;
80823;SDS011;70228;59.128;37.936;2023-05-24T10:23:06;7.90;;;3.63;;
80823;SDS011;70228;59.128;37.936;2023-05-24T10:25:34;9.98;;;3.20;;
80823;SDS011;70228;59.128;37.936;2023-05-24T10:28:10;8.70;;;3.72;;
80823;SDS011;70228;59.128;37.936;2023-05-24T10:33:43;10.23;;;3.38;;
80823;SDS011;70228;59.128;37.936;2023-05-24T10:36:13;8.52;;;3.15;;
80823;SDS011;70228;59.128;37.936;2023-05-24T10:38:40;7.70;;;3.58;;
80823;SDS011;70228;59.128;37.936;2023-05-24T10:41:07;9.48;;;3.60;;
80823;SDS011;70228;59.128;37.936;2023-05-24T10:43:33;9.93;;;3.40;;
80823;SDS011;70228;59.128;37.936;2023-05-24T10:46:03;10.35;;;3.65;;
80823;SDS011;70228;59.128;37.936;2023-05-24T10:48:36;9.07;;;3.35;;
80823;SDS011;70228;59.128;37.936;2023-05-24T10:54:09;8.50;;;3.40;;
80823;SDS011;70228;59.128;37.936;2023-05-24T10:56:43;9.97;;;3.60;;
80823;SDS011;70228;59.128;37.936;2023-05-24T11:01:53;9.45;;;3.67;;
80823;SDS011;70228;59.128;37.936;2023-05-24T11:04:20;9.65;;;3.30;;
80823;SDS011;70228;59.128;37.936;2023-05-24T11:06:54;9.27;;;3.72;;
80823;SDS011;70228;59.128;37.936;2023-05-24T11:09:21;11.10;;;3.43;;
80823;SDS011;70228;59.128;37.936;2023-05-24T11:11:52;8.18;;;3.63;;
80823;SDS011;70228;59.128;37.936;2023-05-24T11:14:24;8.65;;;3.60;;
80823;SDS011;70228;59.128;37.936;2023-05-24T11:16:53;7.70;;;3.13;;
80823;SDS011;70228;59.128;37.936;2023-05-24T11:19:21;8.55;;;3.60;;
80823;SDS011;70228;59.128;37.936;2023-05-24T11:21:49;7.83;;;3.27;;
80823;SDS011;70228;59.128;37.936;2023-05-24T11:24:23;10.13;;;3.42;;
80823;SDS011;70228;59.128;37.936;2023-05-24T11:26:49;8.48;;;3.70;;
80823;SDS011;70228;59.128;37.936;2023-05-24T11:29:17;7.72;;;3.33;;
80823;SDS011;70228;59.128;37.936;2023-05-24T11:31:56;8.43;;;3.58;;
80823;SDS011;70228;59.128;37.936;2023-05-24T11:34:29;9.47;;;3.77;;
80823;SDS011;70228;59.128;37.936;2023-05-24T11:37:00;7.43;;;3.50;;
80823;SDS011;70228;59.128;37.936;2023-05-24T11:39:27;9.27;;;3.22;;
80823;SDS011;70228;59.128;37.936;2023-05-24T11:41:57;10.98;;;3.47;;
80823;SDS011;70228;59.128;37.936;2023-05-24T11:44:25;9.88;;;3.95;;
80823;SDS011;70228;59.128;37.936;2023-05-24T11:47:01;9.43;;;3.87;;
80823;SDS011;70228;59.128;37.936;2023-05-24T11:49:29;9.63;;;4.30;;
80823;SDS011;70228;59.128;37.936;2023-05-24T11:51:56;9.85;;;4.70;;
80823;SDS011;70228;59.128;37.936;2023-05-24T11:54:23;10.63;;;4.80;;
80823;SDS011;70228;59.128;37.936;2023-05-24T11:56:51;12.98;;;5.40;;
80823;SDS011;70228;59.128;37.936;2023-05-24T12:01:48;10.40;;;4.80;;
80823;SDS011;70228;59.128;37.936;2023-05-24T12:04:15;11.50;;;4.82;;
80823;SDS011;70228;59.128;37.936;2023-05-24T12:06:42;10.27;;;4.82;;
80823;SDS011;70228;59.128;37.936;2023-05-24T12:09:10;11.93;;;5.40;;
80823;SDS011;70228;59.128;37.936;2023-05-24T12:11:47;9.07;;;4.37;;
80823;SDS011;70228;59.128;37.936;2023-05-24T12:14:15;14.65;;;5.10;;
80823;SDS011;70228;59.128;37.936;2023-05-24T12:16:43;9.25;;;4.50;;
80823;SDS011;70228;59.128;37.936;2023-05-24T12:19:17;10.35;;;4.60;;
80823;SDS011;70228;59.128;37.936;2023-05-24T12:21:47;10.00;;;4.20;;
80823;SDS011;70228;59.128;37.936;2023-05-24T12:24:15;9.33;;;4.30;;
80823;SDS011;70228;59.128;37.936;2023-05-24T12:26:45;8.27;;;4.05;;
80823;SDS011;70228;59.128;37.936;2023-05-24T12:29:12;10.55;;;4.18;;
80823;SDS011;70228;59.128;37.936;2023-05-24T12:31:39;12.15;;;3.92;;
80823;SDS011;70228;59.128;37.936;2023-05-24T12:34:09;10.55;;;4.20;;
80823;SDS011;70228;59.128;37.936;2023-05-24T12:36:39;11.37;;;3.40;;
80823;SDS011;70228;59.128;37.936;2023-05-24T12:39:20;12.05;;;4.75;;
80823;SDS011;70228;59.128;37.936;2023-05-24T12:41:56;12.68;;;4.63;;
80823;SDS011;70228;59.128;37.936;2023-05-24T12:46:53;12.07;;;3.92;;
80823;SDS011;70228;59.128;37.936;2023-05-24T12:49:20;9.57;;;3.73;;
80823;SDS011;70228;59.128;37.936;2023-05-24T12:51:48;12.48;;;4.50;;
80823;SDS011;70228;59.128;37.936;2023-05-24T12:54:16;9.25;;;4.32;;
80823;SDS011;70228;59.128;37.936;2023-05-24T12:56:43;12.82;;;4.18;;
80823;SDS011;70228;59.128;37.936;2023-05-24T12:59:10;9.65;;;4.10;;
80823;SDS011;70228;59.128;37.936;2023-05-24T13:01:36;10.17;;;4.10;;
80823;SDS011;70228;59.128;37.936;2023-05-24T13:04:02;10.63;;;3.90;;
80823;SDS011;70228;59.128;37.936;2023-05-24T13:06:28;8.48;;;3.80;;
80823;SDS011;70228;59.128;37.936;2023-05-24T13:08:54;10.38;;;4.32;;
80823;SDS011;70228;59.128;37.936;2023-05-24T13:11:20;9.93;;;3.90;;
80823;SDS011;70228;59.128;37.936;2023-05-24T13:13:49;12.63;;;3.60;;
80823;SDS011;70228;59.128;37.936;2023-05-24T13:16:16;9.77;;;3.40;;
80823;SDS011;70228;59.128;37.936;2023-05-24T13:18:42;11.10;;;3.58;;
80823;SDS011;70228;59.128;37.936;2023-05-24T13:21:10;12.80;;;3.75;;
80823;SDS011;70228;59.128;37.936;2023-05-24T13:23:36;10.73;;;3.65;;
80823;SDS011;70228;59.128;37.936;2023-05-24T13:26:03;12.73;;;3.63;;
80823;SDS011;70228;59.128;37.936;2023-05-24T13:28:32;12.13;;;3.85;;
80823;SDS011;70228;59.128;37.936;2023-05-24T13:30:58;8.02;;;3.67;;
80823;SDS011;70228;59.128;37.936;2023-05-24T13:33:24;11.18;;;3.60;;
80823;SDS011;70228;59.128;37.936;2023-05-24T13:35:54;11.15;;;4.25;;
80823;SDS011;70228;59.128;37.936;2023-05-24T13:38:20;8.63;;;3.33;;
80823;SDS011;70228;59.128;37.936;2023-05-24T13:40:46;10.35;;;3.42;;
80823;SDS011;70228;59.128;37.936;2023-05-24T13:43:12;7.40;;;3.20;;
80823;SDS011;70228;59.128;37.936;2023-05-24T13:45:38;6.93;;;3.60;;
80823;SDS011;70228;59.128;37.936;2023-05-24T13:48:04;8.88;;;3.75;;
80823;SDS011;70228;59.128;37.936;2023-05-24T13:50:34;10.43;;;3.70;;
80823;SDS011;70228;59.128;37.936;2023-05-24T13:53:01;8.23;;;3.88;;
80823;SDS011;70228;59.128;37.936;2023-05-24T13:55:32;11.15;;;3.75;;
80823;SDS011;70228;59.128;37.936;2023-05-24T13:57:59;7.82;;;3.63;;
80823;SDS011;70228;59.128;37.936;2023-05-24T14:00:26;8.88;;;3.50;;
80823;SDS011;70228;59.128;37.936;2023-05-24T14:02:53;8.00;;;3.13;;
80823;SDS011;70228;59.128;37.936;2023-05-24T14:05:20;7.53;;;3.70;;
80823;SDS011;70228;59.128;37.936;2023-05-24T14:07:46;7.30;;;2.78;;
80823;SDS011;70228;59.128;37.936;2023-05-24T14:10:12;11.65;;;3.33;;
80823;SDS011;70228;59.128;37.936;2023-05-24T14:12:38;10.57;;;3.38;;
80823;SDS011;70228;59.128;37.936;2023-05-24T14:15:05;10.10;;;3.30;;
80823;SDS011;70228;59.128;37.936;2023-05-24T14:17:31;8.90;;;3.20;;
80823;SDS011;70228;59.128;37.936;2023-05-24T14:19:57;8.35;;;3.25;;
80823;SDS011;70228;59.128;37.936;2023-05-24T14:22:24;11.95;;;4.00;;
80823;SDS011;70228;59.128;37.936;2023-05-24T14:24:51;8.27;;;3.40;;
80823;SDS011;70228;59.128;37.936;2023-05-24T14:27:17;9.27;;;3.30;;
80823;SDS011;70228;59.128;37.936;2023-05-24T14:29:43;9.02;;;3.72;;
80823;SDS011;70228;59.128;37.936;2023-05-24T14:32:11;11.05;;;4.13;;
80823;SDS011;70228;59.128;37.936;2023-05-24T14:34:37;10.82;;;3.78;;
80823;SDS011;70228;59.128;37.936;2023-05-24T14:37:04;6.70;;;3.45;;
80823;SDS011;70228;59.128;37.936;2023-05-24T14:39:30;10.77;;;3.70;;
80823;SDS011;70228;59.128;37.936;2023-05-24T14:41:56;8.32;;;3.42;;
80823;SDS011;70228;59.128;37.936;2023-05-24T14:44:22;13.23;;;3.80;;
80823;SDS011;70228;59.128;37.936;2023-05-24T14:46:48;9.33;;;3.50;;
80823;SDS011;70228;59.128;37.936;2023-05-24T14:49:14;10.68;;;3.60;;
80823;SDS011;70228;59.128;37.936;2023-05-24T14:51:40;13.20;;;3.60;;
80823;SDS011;70228;59.128;37.936;2023-05-24T14:54:06;12.13;;;4.03;;
80823;SDS011;70228;59.128;37.936;2023-05-24T14:56:32;11.85;;;4.43;;
80823;SDS011;70228;59.128;37.936;2023-05-24T14:58:58;9.40;;;4.30;;
80823;SDS011;70228;59.128;37.936;2023-05-24T15:01:24;10.98;;;4.38;;